Time;durP1;ratioP1;P1;durP2;ratioP2;P2;SDS_P1;SDS_P2;PMS_P1;PMS_P2;Temp;Humidity;BMP_temperature;BMP_pressure;BME280_temperature;BME280_humidity;BME280_pressure;Samples;Min_cycle;Max_cycle;Signal;HPM_P1;HPM_P2
2023/01/15 00:00:25;;;;;;;;;;;;;;;;;;1051458;28;2756;-55
2023/01/15 00:01:22;;;;;;;;;;;;;;;;;;1049055;28;4070;-54
2023/01/15 00:01:52;;;;;;;;;;;;;;;;;;1045691;28;4427;-55
2023/01/15 00:02:22;;;;;;;;;;;;;;;;;;1038585;28;2758;-55
2023/01/15 00:02:54;;;;;;;;;;;;;;;;;;1046011;28;4007;-55
2023/01/15 00:03:24;;;;;;;;;;;;;;;;;;1043097;28;3459;-54
2023/01/15 00:03:55;;;;;;;;;;;;;;;;;;1049499;28;3795;-55
2023/01/15 00:04:25;;;;;;;;;;;;;;;;;;1051908;28;2616;-55
2023/01/15 00:04:56;;;;;;;;;;;;;;;;;;1047802;28;3922;-55
2023/01/15 00:05:26;;;;;;;;;;;;;;;;;;1049535;28;1961;-55
2023/01/15 00:06:02;;;;;;;;;;;;;;;;;;1051223;28;4081;-55
2023/01/15 00:06:37;;;;;;;;;;;;;;;;;;1047704;28;3911;-54
2023/01/15 00:07:07;;;;;;;;;;;;;;;;;;1052062;28;1727;-55
2023/01/15 00:07:37;;;;;;;;;;;;;;;;;;1051651;28;3792;-55
2023/01/15 00:08:08;;;;;;;;;;;;;;;;;;1052351;28;2812;-55
2023/01/15 00:08:38;;;;;;;;;;;;;;;;;;1053030;28;3864;-54
2023/01/15 00:09:12;;;;;;;;;;;;;;;;;;1052586;28;2515;-54
2023/01/15 00:09:42;;;;;;;;;;;;;;;;;;1053830;28;3810;-53
2023/01/15 00:10:13;;;;;;;;;;;;;;;;;;1051374;28;3930;-50
2023/01/15 00:10:43;;;;;;;;;;;;;;;;;;1053560;28;3840;-56
2023/01/15 00:11:13;;;;;;;;;;;;;;;;;;1055552;28;1808;-54
2023/01/15 00:11:44;;;;;;;;;;;;;;;;;;1055466;28;4009;-57
2023/01/15 00:12:14;;;;;;;;;;;;;;;;;;1053504;28;3560;-54
2023/01/15 00:12:44;;;;;;;;;;;;;;;;;;1052418;28;4238;-55
2023/01/15 00:13:15;;;;;;;;;;;;;;;;;;1051467;28;1741;-55
2023/01/15 00:13:45;;;;;;;;;;;;;;;;;;1051412;28;4186;-54
2023/01/15 00:14:15;;;;;;;;;;;;;;;;;;1050991;28;2057;-56
2023/01/15 00:14:46;;;;;;;;;;;;;;;;;;1049646;28;4686;-52
2023/01/15 00:15:16;;;;;;;;;;;;;;;;;;1049240;28;2511;-57
2023/01/15 00:15:46;;;;;;;;;;;;;;;;;;1049744;28;4045;-55
2023/01/15 00:16:20;;;;;;;;;;;;;;;;;;1049902;28;2338;-53
2023/01/15 00:16:51;;;;;;;;;;;;;;;;;;1052379;28;3860;-54
2023/01/15 00:17:21;;;;;;;;;;;;;;;;;;1055564;28;1769;-55
2023/01/15 00:17:52;;;;;;;;;;;;;;;;;;1055516;28;4095;-54
2023/01/15 00:18:22;;;;;;;;;;;;;;;;;;1052577;28;2609;-55
2023/01/15 00:18:54;;;;;;;;;;;;;;;;;;1055591;28;3741;-55
2023/01/15 00:19:24;;;;;;;;;;;;;;;;;;1050609;28;1531;-54
2023/01/15 00:19:54;;;;;;;;;;;;;;;;;;1049749;28;3950;-55
2023/01/15 00:20:25;;;;;;;;;;;;;;;;;;1049147;28;2779;-55
2023/01/15 00:20:58;;;;;;;;;;;;;;;;;;1049900;28;3747;-54
2023/01/15 00:21:29;;;;;;;;;;;;;;;;;;1053687;28;4059;-54
2023/01/15 00:21:59;;;;;;;;;;;;;;;;;;1054681;28;2591;-53
2023/01/15 00:22:30;;;;;;;;;;;;;;;;;;1052882;28;4497;-56
2023/01/15 00:23:00;;;;;;;;;;;;;;;;;;1053856;28;2281;-54
2023/01/15 00:27:44;;;;;;;;;;;;;;;;;;1053406;28;4065;-56
2023/01/15 00:28:15;;;;;;;;;;;;;;;;;;1056147;28;2198;-56
2023/01/15 00:28:47;;;;;;;;;;;;;;;;;;1055726;28;5394;-53
2023/01/15 00:29:17;;;;;;;;;;;;;;;;;;1053848;28;2090;-52
2023/01/15 00:29:47;;;;;;;;;;;;;;;;;;1051390;28;3870;-54
2023/01/15 00:30:17;;;;;;;;;;;;;;;;;;1050994;28;4000;-56
2023/01/15 00:30:48;;;;;;;;;;;;;;;;;;1053843;28;4028;-56
2023/01/15 00:31:18;;;;;;;;;;;;;;;;;;1051110;28;1742;-55
2023/01/15 00:31:56;;;;;;;;;;;;;;;;;;1051205;28;4606;-55
2023/01/15 00:32:28;;;;;;;;;;;;;;;;;;1051854;28;2901;-53
2023/01/15 00:32:58;;;;;;;;;;;;;;;;;;1054678;28;4351;-53
2023/01/15 00:33:29;;;;;;;;;;;;;;;;;;1055150;28;4413;-51
2023/01/15 00:33:59;;;;;;;;;;;;;;;;;;1055700;28;1911;-53
2023/01/15 00:34:30;;;;;;;;;;;;;;;;;;1051159;28;4424;-54
2023/01/15 00:35:00;;;;;;;;;;;;;;;;;;1051916;28;3255;-55
2023/01/15 00:35:30;;;;;;;;;;;;;;;;;;1051277;28;4048;-55
2023/01/15 00:36:00;;;;;;;;;;;;;;;;;;1051691;28;2471;-54
2023/01/15 00:36:32;;;;;;;;;;;;;;;;;;1052714;28;4045;-56
2023/01/15 00:37:03;;;;;;;;;;;;;;;;;;1051748;28;1913;-53
2023/01/15 00:37:33;;;;;;;;;;;;;;;;;;1050548;28;4001;-56
2023/01/15 00:38:03;;;;;;;;;;;;;;;;;;1056079;28;1715;-53
2023/01/15 00:38:33;;;;;;;;;;;;;;;;;;1054855;28;4062;-55
2023/01/15 00:39:04;;;;;;;;;;;;;;;;;;1053966;28;2178;-56
2023/01/15 00:39:34;;;;;;;;;;;;;;;;;;1050676;28;4066;-55
2023/01/15 00:40:04;;;;;;;;;;;;;;;;;;1052591;28;2755;-56
2023/01/15 00:40:35;;;;;;;;;;;;;;;;;;1051091;28;3792;-54
2023/01/15 00:41:05;;;;;;;;;;;;;;;;;;1051685;28;2082;-55
2023/01/15 00:41:35;;;;;;;;;;;;;;;;;;1046927;28;3824;-53
2023/01/15 00:42:05;;;;;;;;;;;;;;;;;;1043572;28;3134;-57
2023/01/15 00:42:36;;;;;;;;;;;;;;;;;;1042666;28;4156;-55
2023/01/15 00:43:06;;;;;;;;;;;;;;;;;;1046535;28;2808;-56
2023/01/15 00:43:36;;;;;;;;;;;;;;;;;;1047278;28;3959;-56
2023/01/15 00:44:07;;;;;;;;;;;;;;;;;;1052863;28;2668;-53
2023/01/15 00:44:37;;;;;;;;;;;;;;;;;;1053096;28;4055;-55
2023/01/15 00:45:09;;;;;;;;;;;;;;;;;;1052535;28;2178;-54
2023/01/15 00:45:39;;;;;;;;;;;;;;;;;;1049988;28;3943;-53
2023/01/15 00:46:09;;;;;;;;;;;;;;;;;;1048812;28;2812;-54
2023/01/15 00:46:40;;;;;;;;;;;;;;;;;;1048743;28;3958;-54
2023/01/15 00:47:13;;;;;;;;;;;;;;;;;;1049798;28;2587;-56
2023/01/15 00:47:46;;;;;;;;;;;;;;;;;;1055294;28;4017;-55
2023/01/15 00:48:16;;;;;;;;;;;;;;;;;;1053323;28;2565;-55
2023/01/15 00:48:47;;;;;;;;;;;;;;;;;;1055482;28;3926;-55
2023/01/15 00:49:17;;;;;;;;;;;;;;;;;;1053977;28;2593;-51
2023/01/15 00:49:49;;;;;;;;;;;;;;;;;;1053137;28;4362;-52
2023/01/15 00:50:19;;;;;;;;;;;;;;;;;;1053643;28;2019;-56
2023/01/15 00:50:49;;;;;;;;;;;;;;;;;;1052187;28;4002;-54
2023/01/15 00:51:20;;;;;;;;;;;;;;;;;;1049799;28;2878;-55
2023/01/15 00:51:50;;;;;;;;;;;;;;;;;;1052218;28;4042;-53
2023/01/15 00:52:20;;;;;;;;;;;;;;;;;;1055964;28;2226;-53
2023/01/15 00:52:51;;;;;;;;;;;;;;;;;;1047836;28;4248;-54
2023/01/15 00:53:21;;;;;;;;;;;;;;;;;;1050102;28;2028;-55
2023/01/15 00:53:51;;;;;;;;;;;;;;;;;;1050125;28;3901;-55
2023/01/15 00:54:22;;;;;;;;;;;;;;;;;;1047403;28;2906;-55
2023/01/15 00:54:53;;;;;;;;;;;;;;;;;;1053558;28;4228;-55
2023/01/15 00:55:24;;;;;;;;;;;;;;;;;;1055567;28;1743;-52
2023/01/15 00:55:54;;;;;;;;;;;;;;;;;;1054199;28;3759;-57
2023/01/15 00:56:30;;;;;;;;;;;;;;;;;;1051754;28;1669;-53
2023/01/15 00:57:10;;;;;;;;;;;;;;;;;;1052906;28;3927;-54
2023/01/15 00:57:47;;;;;;;;;;;;;;;;;;1052638;28;3973;-56
2023/01/15 00:58:17;;;;;;;;;;;;;;;;;;1052195;28;1318;-56
2023/01/15 00:58:47;;;;;;;;;;;;;;;;;;1052071;28;4363;-52
2023/01/15 00:59:17;;;;;;;;;;;;;;;;;;1055896;28;2165;-52
2023/01/15 00:59:48;;;;;;;;;;;;;;;;;;1052846;28;3854;-55
2023/01/15 01:00:18;;;;;;;;;;;;;;;;;;1053455;28;2566;-54
2023/01/15 01:00:52;;;;;;;;;;;;;;;;;;1051778;28;4045;-54
2023/01/15 01:01:23;;;;;;;;;;;;;;;;;;1053891;28;2788;-55
2023/01/15 01:01:53;;;;;;;;;;;;;;;;;;1052387;28;3851;-54
2023/01/15 01:02:23;;;;;;;;;;;;;;;;;;1052381;28;2773;-54
2023/01/15 01:02:55;;;;;;;;;;;;;;;;;;1051846;28;3876;-55
2023/01/15 01:03:25;;;;;;;;;;;;;;;;;;1052352;28;1664;-56
2023/01/15 01:03:56;;;;;;;;;;;;;;;;;;1050640;28;5288;-56
2023/01/15 01:04:26;;;;;;;;;;;;;;;;;;1048893;28;3092;-55
2023/01/15 01:04:56;;;;;;;;;;;;;;;;;;1047526;28;3893;-56
2023/01/15 01:05:26;;;;;;;;;;;;;;;;;;1049173;28;1871;-55
2023/01/15 01:06:01;;;;;;;;;;;;;;;;;;1050242;28;3793;-55
2023/01/15 01:06:31;;;;;;;;;;;;;;;;;;1051425;27;4433;-56
2023/01/15 01:07:01;;;;;;;;;;;;;;;;;;1049229;28;2061;-55
2023/01/15 01:07:32;;;;;;;;;;;;;;;;;;1046695;28;3882;-56
2023/01/15 01:08:02;;;;;;;;;;;;;;;;;;1047356;28;2144;-56
2023/01/15 01:08:32;;;;;;;;;;;;;;;;;;1047947;28;3824;-55
2023/01/15 01:09:02;;;;;;;;;;;;;;;;;;1053735;28;2028;-55
2023/01/15 01:09:33;;;;;;;;;;;;;;;;;;1048492;27;4467;-55
2023/01/15 01:10:03;;;;;;;;;;;;;;;;;;1054372;28;1808;-56
2023/01/15 01:10:33;;;;;;;;;;;;;;;;;;1053673;28;4073;-53
2023/01/15 01:11:08;;;;;;;;;;;;;;;;;;1050983;28;1724;-54
2023/01/15 01:11:39;;;;;;;;;;;;;;;;;;1053362;28;4372;-56
2023/01/15 01:12:09;;;;;;;;;;;;;;;;;;1055933;28;1781;-55
2023/01/15 01:12:40;;;;;;;;;;;;;;;;;;1054474;28;4212;-54
2023/01/15 01:13:10;;;;;;;;;;;;;;;;;;1055278;28;1818;-55
2023/01/15 01:13:41;;;;;;;;;;;;;;;;;;1051947;28;4067;-56
2023/01/15 01:14:11;;;;;;;;;;;;;;;;;;1055309;28;1741;-55
2023/01/15 01:14:42;;;;;;;;;;;;;;;;;;1055345;28;3898;-55
2023/01/15 01:15:13;;;;;;;;;;;;;;;;;;1053303;28;3073;-56
2023/01/15 01:15:43;;;;;;;;;;;;;;;;;;1052077;28;3872;-56
2023/01/15 01:16:22;;;;;;;;;;;;;;;;;;1051903;28;2603;-56
2023/01/15 01:16:52;;;;;;;;;;;;;;;;;;1051668;28;4552;-55
2023/01/15 01:17:22;;;;;;;;;;;;;;;;;;1051609;28;3048;-55
2023/01/15 01:17:53;;;;;;;;;;;;;;;;;;1052167;27;4214;-56
2023/01/15 01:18:23;;;;;;;;;;;;;;;;;;1051468;28;3118;-56
2023/01/15 01:18:53;;;;;;;;;;;;;;;;;;1052146;28;4205;-54
2023/01/15 01:19:24;;;;;;;;;;;;;;;;;;1053296;28;2837;-51
2023/01/15 01:19:55;;;;;;;;;;;;;;;;;;1052729;28;4431;-54
2023/01/15 01:20:25;;;;;;;;;;;;;;;;;;1053128;28;2937;-53
2023/01/15 01:20:56;;;;;;;;;;;;;;;;;;1052864;28;3948;-55
2023/01/15 01:21:26;;;;;;;;;;;;;;;;;;1052023;28;2389;-54
2023/01/15 01:21:57;;;;;;;;;;;;;;;;;;1051025;28;3747;-56
2023/01/15 01:22:27;;;;;;;;;;;;;;;;;;1052947;28;2644;-55
2023/01/15 01:22:57;;;;;;;;;;;;;;;;;;1054625;28;3864;-54
2023/01/15 01:23:28;;;;;;;;;;;;;;;;;;1052901;28;2204;-56
2023/01/15 01:23:59;;;;;;;;;;;;;;;;;;1051469;28;3914;-52
2023/01/15 01:24:29;;;;;;;;;;;;;;;;;;1046893;28;3961;-56
2023/01/15 01:24:59;;;;;;;;;;;;;;;;;;1048960;28;3151;-56
2023/01/15 01:25:29;;;;;;;;;;;;;;;;;;1048581;28;3800;-54
2023/01/15 01:26:00;;;;;;;;;;;;;;;;;;1048012;28;1879;-56
2023/01/15 01:26:44;;;;;;;;;;;;;;;;;;1052113;28;4027;-54
2023/01/15 01:27:17;;;;;;;;;;;;;;;;;;1055241;28;2453;-56
2023/01/15 01:27:54;;;;;;;;;;;;;;;;;;1054667;28;3738;-55
2023/01/15 01:28:24;;;;;;;;;;;;;;;;;;1052997;28;2587;-53
2023/01/15 01:28:54;;;;;;;;;;;;;;;;;;1052418;28;3858;-56
2023/01/15 01:29:25;;;;;;;;;;;;;;;;;;1051261;28;1615;-52
2023/01/15 01:29:55;;;;;;;;;;;;;;;;;;1051817;28;4356;-54
2023/01/15 01:30:25;;;;;;;;;;;;;;;;;;1054030;28;2662;-54
2023/01/15 01:30:55;;;;;;;;;;;;;;;;;;1053989;28;3750;-50
2023/01/15 01:31:26;;;;;;;;;;;;;;;;;;1054605;28;3090;-54
2023/01/15 01:31:56;;;;;;;;;;;;;;;;;;1055000;28;4053;-53
2023/01/15 01:32:26;;;;;;;;;;;;;;;;;;1051877;28;2651;-55
2023/01/15 01:32:56;;;;;;;;;;;;;;;;;;1052979;28;3785;-55
2023/01/15 01:33:27;;;;;;;;;;;;;;;;;;1049216;28;2556;-56
2023/01/15 01:33:58;;;;;;;;;;;;;;;;;;1049011;28;3877;-56
2023/01/15 01:34:28;;;;;;;;;;;;;;;;;;1047768;28;2318;-55
2023/01/15 01:34:58;;;;;;;;;;;;;;;;;;1051149;28;3700;-54
2023/01/15 01:35:28;;;;;;;;;;;;;;;;;;1053968;28;2666;-56
2023/01/15 01:35:59;;;;;;;;;;;;;;;;;;1051029;28;3882;-53
2023/01/15 01:36:31;;;;;;;;;;;;;;;;;;1048264;28;3925;-55
2023/01/15 01:37:01;;;;;;;;;;;;;;;;;;1048817;28;2935;-54
2023/01/15 01:37:31;;;;;;;;;;;;;;;;;;1049853;28;3942;-56
2023/01/15 01:38:02;;;;;;;;;;;;;;;;;;1051381;28;1857;-54
2023/01/15 01:38:33;;;;;;;;;;;;;;;;;;1054633;28;3915;-56
2023/01/15 01:39:06;;;;;;;;;;;;;;;;;;1050117;28;2382;-56
2023/01/15 01:39:36;;;;;;;;;;;;;;;;;;1048642;28;4018;-56
2023/01/15 01:40:07;;;;;;;;;;;;;;;;;;1045133;28;2264;-53
2023/01/15 01:40:38;;;;;;;;;;;;;;;;;;1046130;28;4234;-56
2023/01/15 01:41:08;;;;;;;;;;;;;;;;;;1050715;28;2256;-53
2023/01/15 01:41:38;;;;;;;;;;;;;;;;;;1050689;28;4059;-56
2023/01/15 01:42:12;;;;;;;;;;;;;;;;;;1054036;28;1853;-55
2023/01/15 01:42:43;;;;;;;;;;;;;;;;;;1053778;28;5476;-54
2023/01/15 01:43:23;;;;;;;;;;;;;;;;;;1053525;28;2708;-55
2023/01/15 01:44:04;;;;;;;;;;;;;;;;;;1054269;28;5186;-56
2023/01/15 01:44:34;;;;;;;;;;;;;;;;;;1051678;28;3882;-52
2023/01/15 01:45:06;;;;;;;;;;;;;;;;;;1054923;28;2107;-53
2023/01/15 01:45:37;;;;;;;;;;;;;;;;;;1054549;28;3886;-56
2023/01/15 01:46:07;;;;;;;;;;;;;;;;;;1054063;28;2899;-53
2023/01/15 01:46:37;;;;;;;;;;;;;;;;;;1052119;28;4044;-55
2023/01/15 01:47:14;;;;;;;;;;;;;;;;;;1052825;28;2737;-55
2023/01/15 01:47:45;;;;;;;;;;;;;;;;;;1052699;28;4162;-54
2023/01/15 01:48:16;;;;;;;;;;;;;;;;;;1053202;28;2119;-56
2023/01/15 01:48:49;;;;;;;;;;;;;;;;;;1053443;28;3775;-53
2023/01/15 01:49:19;;;;;;;;;;;;;;;;;;1053944;28;2796;-55
2023/01/15 01:49:52;;;;;;;;;;;;;;;;;;1054164;28;4140;-53
2023/01/15 01:50:22;;;;;;;;;;;;;;;;;;1054209;28;2290;-55
2023/01/15 01:50:53;;;;;;;;;;;;;;;;;;1054093;28;3968;-56
2023/01/15 01:51:26;;;;;;;;;;;;;;;;;;1055163;28;2589;-56
2023/01/15 01:52:00;;;;;;;;;;;;;;;;;;1054352;28;4502;-56
2023/01/15 01:52:41;;;;;;;;;;;;;;;;;;1051871;28;4028;-53
2023/01/15 01:53:13;;;;;;;;;;;;;;;;;;1051609;28;1797;-56
2023/01/15 01:53:43;;;;;;;;;;;;;;;;;;1052015;28;3978;-53
2023/01/15 01:54:16;;;;;;;;;;;;;;;;;;1054484;28;2804;-53
2023/01/15 01:54:47;;;;;;;;;;;;;;;;;;1053321;28;4203;-56
2023/01/15 01:55:20;;;;;;;;;;;;;;;;;;1053192;28;2639;-55
2023/01/15 01:55:52;;;;;;;;;;;;;;;;;;1050582;28;3925;-53
2023/01/15 01:56:22;;;;;;;;;;;;;;;;;;1051974;28;1831;-56
2023/01/15 01:57:05;;;;;;;;;;;;;;;;;;1052246;28;3858;-56
2023/01/15 01:57:43;;;;;;;;;;;;;;;;;;1054918;28;4335;-55
2023/01/15 01:58:14;;;;;;;;;;;;;;;;;;1053130;28;1976;-55
2023/01/15 01:58:48;;;;;;;;;;;;;;;;;;1050865;28;3863;-55
2023/01/15 01:59:19;;;;;;;;;;;;;;;;;;1053168;28;2778;-55
2023/01/15 01:59:50;;;;;;;;;;;;;;;;;;1053548;28;3942;-54
2023/01/15 02:00:21;;;;;;;;;;;;;;;;;;1053467;28;2042;-55
2023/01/15 02:00:51;;;;;;;;;;;;;;;;;;1053293;28;3863;-55
2023/01/15 02:01:23;;;;;;;;;;;;;;;;;;1055204;28;2164;-53
2023/01/15 02:01:53;;;;;;;;;;;;;;;;;;1054702;28;3903;-55
2023/01/15 02:02:23;;;;;;;;;;;;;;;;;;1054688;28;2034;-56
2023/01/15 02:02:54;;;;;;;;;;;;;;;;;;1052867;28;3771;-55
2023/01/15 02:03:26;;;;;;;;;;;;;;;;;;1047816;28;2734;-54
2023/01/15 02:03:57;;;;;;;;;;;;;;;;;;1048048;28;4255;-54
2023/01/15 02:04:28;;;;;;;;;;;;;;;;;;1047241;28;2260;-53
2023/01/15 02:04:58;;;;;;;;;;;;;;;;;;1047912;28;3928;-55
2023/01/15 02:05:31;;;;;;;;;;;;;;;;;;1051700;28;2160;-55
2023/01/15 02:06:02;;;;;;;;;;;;;;;;;;1052288;28;5244;-55
2023/01/15 02:06:33;;;;;;;;;;;;;;;;;;1050717;28;4513;-55
2023/01/15 02:07:03;;;;;;;;;;;;;;;;;;1053247;28;2874;-55
2023/01/15 02:07:34;;;;;;;;;;;;;;;;;;1051203;28;3957;-52
2023/01/15 02:08:04;;;;;;;;;;;;;;;;;;1051807;28;2702;-55
2023/01/15 02:08:38;;;;;;;;;;;;;;;;;;1053098;28;4044;-55
2023/01/15 02:09:08;;;;;;;;;;;;;;;;;;1050772;28;2738;-53
2023/01/15 02:09:38;;;;;;;;;;;;;;;;;;1052731;28;3881;-55
2023/01/15 02:10:13;;;;;;;;;;;;;;;;;;1050875;28;2482;-54
2023/01/15 02:10:44;;;;;;;;;;;;;;;;;;1053323;28;4062;-54
2023/01/15 02:11:20;;;;;;;;;;;;;;;;;;1051774;28;1695;-56
2023/01/15 02:11:54;;;;;;;;;;;;;;;;;;1051302;28;3883;-55
2023/01/15 02:12:29;;;;;;;;;;;;;;;;;;1050850;28;2468;-55
2023/01/15 02:13:00;;;;;;;;;;;;;;;;;;1054796;28;3909;-55
2023/01/15 02:13:35;;;;;;;;;;;;;;;;;;1052321;28;4069;-53
2023/01/15 02:14:14;;;;;;;;;;;;;;;;;;1053088;28;3011;-56
2023/01/15 02:14:52;;;;;;;;;;;;;;;;;;1052723;28;4050;-55
2023/01/15 02:15:34;;;;;;;;;;;;;;;;;;1052138;28;2387;-56
2023/01/15 02:16:27;;;;;;;;;;;;;;;;;;1051351;28;3910;-54
2023/01/15 02:17:11;;;;;;;;;;;;;;;;;;1051252;28;4260;-53
2023/01/15 02:17:41;;;;;;;;;;;;;;;;;;1051756;28;4587;-55
2023/01/15 02:18:15;;;;;;;;;;;;;;;;;;1053995;28;2725;-56
2023/01/15 02:19:08;;;;;;;;;;;;;;;;;;1051225;28;3753;-56
2023/01/15 02:19:57;;;;;;;;;;;;;;;;;;1034677;28;4318;-56
2023/01/15 02:20:31;;;;;;;;;;;;;;;;;;1040279;28;1651;-56
2023/01/15 02:21:09;;;;;;;;;;;;;;;;;;1048532;28;3702;-56
2023/01/15 02:21:57;;;;;;;;;;;;;;;;;;1051040;28;4375;-54
2023/01/15 02:22:53;;;;;;;;;;;;;;;;;;1055028;28;2082;-54
2023/01/15 02:23:42;;;;;;;;;;;;;;;;;;1053264;28;4226;-55
2023/01/15 02:24:41;;;;;;;;;;;;;;;;;;1052512;28;3957;-53
2023/01/15 02:25:22;;;;;;;;;;;;;;;;;;1037008;28;4042;-53
2023/01/15 02:25:52;;;;;;;;;;;;;;;;;;1051299;28;3958;-53
2023/01/15 02:26:48;;;;;;;;;;;;;;;;;;1053116;28;2482;-55
2023/01/15 02:27:20;;;;;;;;;;;;;;;;;;1033282;28;3832;-56
2023/01/15 02:27:54;;;;;;;;;;;;;;;;;;1036481;28;4073;-55
2023/01/15 02:28:34;;;;;;;;;;;;;;;;;;1046487;28;2074;-56
2023/01/15 02:29:09;;;;;;;;;;;;;;;;;;1047190;28;4000;-56
2023/01/15 02:29:39;;;;;;;;;;;;;;;;;;1046029;28;3914;-53
2023/01/15 02:30:15;;;;;;;;;;;;;;;;;;1045278;28;2552;-56
2023/01/15 02:30:48;;;;;;;;;;;;;;;;;;1047676;28;4200;-56
2023/01/15 02:31:22;;;;;;;;;;;;;;;;;;1048358;28;1709;-55
2023/01/15 02:31:52;;;;;;;;;;;;;;;;;;1048861;28;4024;-55
2023/01/15 02:32:28;;;;;;;;;;;;;;;;;;1052900;28;2412;-54
2023/01/15 02:33:05;;;;;;;;;;;;;;;;;;1054591;28;3835;-56
2023/01/15 02:33:37;;;;;;;;;;;;;;;;;;1052884;28;4259;-56
2023/01/15 02:34:19;;;;;;;;;;;;;;;;;;1055642;28;1737;-54
2023/01/15 02:34:52;;;;;;;;;;;;;;;;;;1054821;28;4391;-53
2023/01/15 02:35:26;;;;;;;;;;;;;;;;;;1052238;28;3677;-55
2023/01/15 02:35:59;;;;;;;;;;;;;;;;;;1051478;28;4045;-55
2023/01/15 02:36:35;;;;;;;;;;;;;;;;;;1051665;28;3893;-54
2023/01/15 02:37:08;;;;;;;;;;;;;;;;;;1052239;28;2144;-54
2023/01/15 02:37:41;;;;;;;;;;;;;;;;;;1050541;28;4391;-56
2023/01/15 02:38:14;;;;;;;;;;;;;;;;;;1052729;28;2186;-56
2023/01/15 02:38:46;;;;;;;;;;;;;;;;;;1045629;28;4590;-56
2023/01/15 02:39:17;;;;;;;;;;;;;;;;;;1049965;28;2716;-56
2023/01/15 02:39:48;;;;;;;;;;;;;;;;;;1049608;28;4024;-52
2023/01/15 02:40:19;;;;;;;;;;;;;;;;;;1050484;28;2145;-56
2023/01/15 02:40:52;;;;;;;;;;;;;;;;;;1052243;28;4054;-54
2023/01/15 02:41:25;;;;;;;;;;;;;;;;;;1053003;27;1791;-56
2023/01/15 02:41:58;;;;;;;;;;;;;;;;;;1049774;28;4553;-56
2023/01/15 02:42:29;;;;;;;;;;;;;;;;;;1046678;28;2519;-53
2023/01/15 02:43:00;;;;;;;;;;;;;;;;;;1049388;28;3893;-53
2023/01/15 02:43:32;;;;;;;;;;;;;;;;;;1048232;28;4117;-54
2023/01/15 02:44:04;;;;;;;;;;;;;;;;;;1051957;28;2671;-54
2023/01/15 02:44:36;;;;;;;;;;;;;;;;;;1052632;28;3866;-55
2023/01/15 02:45:07;;;;;;;;;;;;;;;;;;1049031;28;2347;-55
2023/01/15 02:45:39;;;;;;;;;;;;;;;;;;1045477;28;4115;-51
2023/01/15 02:46:10;;;;;;;;;;;;;;;;;;1045777;28;2217;-55
2023/01/15 02:46:40;;;;;;;;;;;;;;;;;;1045715;28;3791;-54
2023/01/15 02:47:11;;;;;;;;;;;;;;;;;;1050344;28;2335;-53
2023/01/15 02:47:42;;;;;;;;;;;;;;;;;;1052443;28;3876;-55
2023/01/15 02:48:13;;;;;;;;;;;;;;;;;;1053831;28;2287;-52
2023/01/15 02:48:47;;;;;;;;;;;;;;;;;;1054785;28;4047;-54
2023/01/15 02:49:19;;;;;;;;;;;;;;;;;;1052452;28;3999;-56
2023/01/15 02:49:50;;;;;;;;;;;;;;;;;;1052221;28;4019;-55
2023/01/15 02:50:24;;;;;;;;;;;;;;;;;;1051453;28;1672;-55
2023/01/15 02:50:57;;;;;;;;;;;;;;;;;;1054431;28;4035;-53
2023/01/15 02:51:33;;;;;;;;;;;;;;;;;;1052592;28;2903;-54
2023/01/15 02:52:08;;;;;;;;;;;;;;;;;;1053525;28;4142;-55
2023/01/15 02:52:50;;;;;;;;;;;;;;;;;;1054058;28;3816;-53
2023/01/15 02:53:22;;;;;;;;;;;;;;;;;;1052284;28;2759;-55
2023/01/15 02:53:55;;;;;;;;;;;;;;;;;;1052652;28;3785;-55
2023/01/15 02:54:29;;;;;;;;;;;;;;;;;;1055345;28;1806;-55
2023/01/15 02:55:04;;;;;;;;;;;;;;;;;;1052914;28;3827;-53
2023/01/15 02:55:37;;;;;;;;;;;;;;;;;;1049971;28;3790;-55
2023/01/15 02:56:09;;;;;;;;;;;;;;;;;;1050360;28;2172;-53
2023/01/15 02:56:47;;;;;;;;;;;;;;;;;;1049736;28;4249;-55
2023/01/15 02:57:19;;;;;;;;;;;;;;;;;;1050525;28;2373;-57
2023/01/15 02:57:51;;;;;;;;;;;;;;;;;;1047622;28;4053;-55
2023/01/15 02:58:27;;;;;;;;;;;;;;;;;;1050041;28;2619;-54
2023/01/15 02:59:01;;;;;;;;;;;;;;;;;;1047913;28;4034;-53
2023/01/15 02:59:38;;;;;;;;;;;;;;;;;;1046300;28;4532;-55
2023/01/15 03:00:10;;;;;;;;;;;;;;;;;;1048527;28;2694;-55
2023/01/15 03:00:42;;;;;;;;;;;;;;;;;;1046780;28;4014;-54
2023/01/15 03:01:15;;;;;;;;;;;;;;;;;;1049894;28;2575;-56
2023/01/15 03:02:05;;;;;;;;;;;;;;;;;;1049001;28;4169;-55
2023/01/15 03:02:38;;;;;;;;;;;;;;;;;;1047758;28;4012;-55
2023/01/15 03:03:13;;;;;;;;;;;;;;;;;;1050074;28;2093;-55
2023/01/15 03:03:46;;;;;;;;;;;;;;;;;;1046341;28;4361;-55
2023/01/15 03:04:26;;;;;;;;;;;;;;;;;;1047216;28;2166;-55
2023/01/15 03:05:01;;;;;;;;;;;;;;;;;;1049153;28;4323;-56
2023/01/15 03:05:35;;;;;;;;;;;;;;;;;;1048994;28;4250;-55
2023/01/15 03:06:14;;;;;;;;;;;;;;;;;;1046990;28;2442;-52
2023/01/15 03:06:50;;;;;;;;;;;;;;;;;;1047330;28;3789;-53
2023/01/15 03:07:23;;;;;;;;;;;;;;;;;;1048129;28;2657;-56
2023/01/15 03:07:55;;;;;;;;;;;;;;;;;;1045775;28;3782;-56
2023/01/15 03:08:26;;;;;;;;;;;;;;;;;;1049236;28;2418;-55
2023/01/15 03:08:56;;;;;;;;;;;;;;;;;;1047481;28;4316;-54
2023/01/15 03:09:27;;;;;;;;;;;;;;;;;;1048815;28;2480;-56
2023/01/15 03:09:57;;;;;;;;;;;;;;;;;;1046736;28;3712;-54
2023/01/15 03:10:46;;;;;;;;;;;;;;;;;;1047621;28;2498;-56
2023/01/15 03:11:20;;;;;;;;;;;;;;;;;;1048202;28;3790;-56
2023/01/15 03:12:10;;;;;;;;;;;;;;;;;;1049189;28;3853;-55
2023/01/15 03:13:02;;;;;;;;;;;;;;;;;;1046577;28;3960;-56
2023/01/15 03:13:42;;;;;;;;;;;;;;;;;;1047170;28;3954;-54
2023/01/15 03:14:17;;;;;;;;;;;;;;;;;;1049348;28;2943;-53
2023/01/15 03:16:33;;;;;;;;;;;;;;;;;;1051148;28;3815;-57
2023/01/15 03:17:02;;;;;;;;;;;;;;;;;;1048119;28;3817;-54
2023/01/15 03:17:53;;;;;;;;;;;;;;;;;;1048226;28;4030;-55
2023/01/15 03:18:26;;;;;;;;;;;;;;;;;;1046608;28;2173;-55
2023/01/15 03:19:03;;;;;;;;;;;;;;;;;;1049504;28;3995;-54
2023/01/15 03:19:44;;;;;;;;;;;;;;;;;;1048625;28;4052;-55
2023/01/15 03:20:22;;;;;;;;;;;;;;;;;;1046740;28;2638;-55
2023/01/15 03:20:55;;;;;;;;;;;;;;;;;;1049191;28;3835;-55
2023/01/15 03:21:45;;;;;;;;;;;;;;;;;;1048958;28;2669;-55
2023/01/15 03:22:27;;;;;;;;;;;;;;;;;;1047069;28;3862;-55
2023/01/15 03:23:08;;;;;;;;;;;;;;;;;;1049391;28;3969;-55
2023/01/15 03:23:40;;;;;;;;;;;;;;;;;;1048030;28;3807;-53
2023/01/15 03:24:11;;;;;;;;;;;;;;;;;;1047245;28;1787;-54
2023/01/15 03:24:48;;;;;;;;;;;;;;;;;;1045981;28;3890;-55
2023/01/15 03:25:21;;;;;;;;;;;;;;;;;;1049951;28;2978;-55
2023/01/15 03:25:51;;;;;;;;;;;;;;;;;;1050409;28;4226;-56
2023/01/15 03:26:22;;;;;;;;;;;;;;;;;;1050855;28;1637;-54
2023/01/15 03:26:52;;;;;;;;;;;;;;;;;;1049116;28;5209;-56
2023/01/15 03:27:23;;;;;;;;;;;;;;;;;;1050614;28;1611;-54
2023/01/15 03:27:55;;;;;;;;;;;;;;;;;;1046748;28;3882;-55
2023/01/15 03:28:26;;;;;;;;;;;;;;;;;;1047374;28;2412;-55
2023/01/15 03:28:57;;;;;;;;;;;;;;;;;;1046416;28;4276;-57
2023/01/15 03:29:30;;;;;;;;;;;;;;;;;;1049618;28;2560;-53
2023/01/15 03:30:03;;;;;;;;;;;;;;;;;;1046897;28;3855;-56
2023/01/15 03:30:33;;;;;;;;;;;;;;;;;;1046100;28;3939;-54
2023/01/15 03:31:03;;;;;;;;;;;;;;;;;;1048586;28;2750;-51
2023/01/15 03:31:34;;;;;;;;;;;;;;;;;;1047240;28;4177;-53
2023/01/15 03:32:05;;;;;;;;;;;;;;;;;;1048633;28;2281;-53
2023/01/15 03:32:35;;;;;;;;;;;;;;;;;;1046485;28;4340;-52
2023/01/15 03:33:10;;;;;;;;;;;;;;;;;;1050967;28;1931;-56
2023/01/15 03:33:40;;;;;;;;;;;;;;;;;;1048333;28;4061;-53
2023/01/15 03:34:11;;;;;;;;;;;;;;;;;;1051110;28;1708;-52
2023/01/15 03:34:43;;;;;;;;;;;;;;;;;;1048025;28;3872;-55
2023/01/15 03:35:32;;;;;;;;;;;;;;;;;;1048016;28;2599;-56
2023/01/15 03:36:03;;;;;;;;;;;;;;;;;;1046751;28;3973;-53
2023/01/15 03:36:33;;;;;;;;;;;;;;;;;;1046899;28;4035;-55
2023/01/15 03:37:03;;;;;;;;;;;;;;;;;;1049936;28;2693;-52
2023/01/15 03:37:34;;;;;;;;;;;;;;;;;;1050868;28;3783;-56
2023/01/15 03:38:04;;;;;;;;;;;;;;;;;;1049670;28;2283;-55
2023/01/15 03:38:36;;;;;;;;;;;;;;;;;;1050984;28;4230;-53
2023/01/15 03:39:06;;;;;;;;;;;;;;;;;;1048543;28;2726;-56
2023/01/15 03:39:37;;;;;;;;;;;;;;;;;;1049936;28;4164;-55
2023/01/15 03:40:07;;;;;;;;;;;;;;;;;;1047996;28;1732;-54
2023/01/15 03:40:42;;;;;;;;;;;;;;;;;;1051252;28;3982;-56
2023/01/15 03:41:17;;;;;;;;;;;;;;;;;;1048731;28;2656;-55
2023/01/15 03:42:06;;;;;;;;;;;;;;;;;;1051382;28;4330;-54
2023/01/15 03:43:39;;;;;;;;;;;;;;;;;;1047453;28;3789;-55
2023/01/15 03:43:59;;;;;;;;;;;;;;;;;;1047870;28;4478;-56
2023/01/15 03:45:02;;;;;;;;;;;;;;;;;;1049271;28;2147;-56
2023/01/15 03:45:33;;;;;;;;;;;;;;;;;;1035326;28;4194;-52
2023/01/15 03:46:06;;;;;;;;;;;;;;;;;;1038492;28;1167;-55
2023/01/15 03:46:52;;;;;;;;;;;;;;;;;;1041367;28;4091;-54
2023/01/15 03:47:22;;;;;;;;;;;;;;;;;;1046281;28;2901;-54
2023/01/15 03:48:24;;;;;;;;;;;;;;;;;;1050698;28;3942;-53
2023/01/15 03:49:20;;;;;;;;;;;;;;;;;;1033531;28;3985;-56
2023/01/15 03:50:03;;;;;;;;;;;;;;;;;;1035124;28;4054;-54
2023/01/15 03:50:41;;;;;;;;;;;;;;;;;;1047525;28;4040;-55
2023/01/15 03:51:31;;;;;;;;;;;;;;;;;;1048116;28;3032;-54
2023/01/15 03:52:10;;;;;;;;;;;;;;;;;;1037732;28;3991;-54
2023/01/15 03:53:12;;;;;;;;;;;;;;;;;;1037965;28;3998;-51
2023/01/15 03:53:45;;;;;;;;;;;;;;;;;;1036158;28;3872;-53
2023/01/15 03:54:20;;;;;;;;;;;;;;;;;;1038468;28;1644;-56
2023/01/15 03:54:53;;;;;;;;;;;;;;;;;;1044870;28;4009;-55
2023/01/15 03:55:42;;;;;;;;;;;;;;;;;;1051325;28;1838;-53
2023/01/15 03:56:15;;;;;;;;;;;;;;;;;;1047162;28;3890;-55
2023/01/15 03:57:03;;;;;;;;;;;;;;;;;;1047817;28;3882;-52
2023/01/15 03:57:51;;;;;;;;;;;;;;;;;;1050849;28;4233;-55
2023/01/15 03:58:37;;;;;;;;;;;;;;;;;;1047466;28;2971;-55
2023/01/15 03:59:30;;;;;;;;;;;;;;;;;;1049495;28;4130;-55